Time;durP1;ratioP1;P1;durP2;ratioP2;P2;SDS_P1;SDS_P2;PMS_P1;PMS_P2;Temp;Humidity;BMP_temperature;BMP_pressure;BME280_temperature;BME280_humidity;BME280_pressure;Samples;Min_cycle;Max_cycle;Signal;HPM_P1;HPM_P2
2021/08/04 00:01:37;;;;;;;23.67;19.80;;;;;;;;;;5039014;28;20492;-76
2021/08/04 00:04:02;;;;;;;20.73;18.38;;;;;;;;;;5070056;28;20027;-76
2021/08/04 00:06:27;;;;;;;22.15;19.10;;;;;;;;;;5072150;28;20080;-76
2021/08/04 00:08:53;;;;;;;25.45;20.63;;;;;;;;;;5075468;28;20021;-76
2021/08/04 00:11:18;;;;;;;23.90;19.90;;;;;;;;;;5069321;28;20040;-75
2021/08/04 00:13:43;;;;;;;20.85;18.75;;;;;;;;;;5075544;28;20423;-76
2021/08/04 00:16:08;;;;;;;21.63;18.55;;;;;;;;;;5075075;28;20031;-76
2021/08/04 00:18:33;;;;;;;22.40;20.00;;;;;;;;;;5076002;28;20024;-76
2021/08/04 00:21:01;;;;;;;21.67;18.67;;;;;;;;;;5075867;28;20247;-76
2021/08/04 00:23:29;;;;;;;25.25;19.33;;;;;;;;;;5075588;28;20033;-76
2021/08/04 00:25:57;;;;;;;23.83;20.20;;;;;;;;;;5075638;28;20116;-76
2021/08/04 00:28:22;;;;;;;21.98;18.65;;;;;;;;;;5072766;28;20045;-76
2021/08/04 00:30:47;;;;;;;20.23;18.17;;;;;;;;;;5075745;28;20060;-75
2021/08/04 00:33:12;;;;;;;22.73;19.83;;;;;;;;;;5075500;28;20016;-75
2021/08/04 00:35:42;;;;;;;23.30;20.35;;;;;;;;;;5073278;28;20017;-76
2021/08/04 00:38:08;;;;;;;21.30;19.38;;;;;;;;;;5075410;28;20071;-76
2021/08/04 00:40:34;;;;;;;25.88;20.52;;;;;;;;;;5084280;28;20073;-75
2021/08/04 00:42:59;;;;;;;23.02;19.80;;;;;;;;;;5095525;28;20016;-76
2021/08/04 00:45:29;;;;;;;23.07;19.80;;;;;;;;;;5094614;28;20058;-75
2021/08/04 00:47:59;;;;;;;21.88;19.52;;;;;;;;;;5059269;28;20318;-76
2021/08/04 00:50:27;;;;;;;21.88;19.70;;;;;;;;;;5063475;28;20016;-76
2021/08/04 00:52:52;;;;;;;21.45;19.23;;;;;;;;;;5065525;28;20096;-75
2021/08/04 00:55:17;;;;;;;20.88;18.77;;;;;;;;;;5054966;28;20436;-75
2021/08/04 00:57:42;;;;;;;20.50;18.42;;;;;;;;;;5042897;28;20352;-76
2021/08/04 01:00:09;;;;;;;22.45;20.15;;;;;;;;;;5054866;28;20388;-77
2021/08/04 01:02:39;;;;;;;23.33;20.80;;;;;;;;;;5054806;28;20095;-76
2021/08/04 01:05:06;;;;;;;21.55;18.52;;;;;;;;;;5072946;28;20459;-75
2021/08/04 01:07:36;;;;;;;21.88;19.88;;;;;;;;;;5073612;28;20052;-75
2021/08/04 01:10:08;;;;;;;23.00;20.35;;;;;;;;;;5063895;28;20104;-75
2021/08/04 01:12:38;;;;;;;25.63;19.65;;;;;;;;;;5054705;28;20053;-75
2021/08/04 01:15:05;;;;;;;21.95;19.65;;;;;;;;;;5059843;28;20020;-75
2021/08/04 01:17:30;;;;;;;23.95;18.58;;;;;;;;;;5075289;28;20032;-75
2021/08/04 01:20:01;;;;;;;21.98;19.77;;;;;;;;;;5061125;28;20393;-75
2021/08/04 01:22:37;;;;;;;22.38;20.13;;;;;;;;;;5054249;28;20436;-76
2021/08/04 01:25:13;;;;;;;21.40;18.58;;;;;;;;;;5053962;28;20044;-75
2021/08/04 01:27:44;;;;;;;21.98;19.30;;;;;;;;;;5054301;28;20108;-76
2021/08/04 01:30:09;;;;;;;22.65;19.58;;;;;;;;;;5057709;28;20359;-76
2021/08/04 01:32:35;;;;;;;21.05;18.83;;;;;;;;;;5074264;28;20025;-76
2021/08/04 01:35:01;;;;;;;24.60;19.92;;;;;;;;;;5065146;28;20033;-75
2021/08/04 01:37:26;;;;;;;22.08;19.67;;;;;;;;;;5083815;28;20052;-75
2021/08/04 01:39:53;;;;;;;21.10;18.83;;;;;;;;;;5076380;28;20051;-76
2021/08/04 01:42:22;;;;;;;23.25;20.88;;;;;;;;;;5062982;28;20032;-76
2021/08/04 01:44:47;;;;;;;24.40;20.30;;;;;;;;;;5053849;28;20107;-76
2021/08/04 01:47:16;;;;;;;25.52;22.58;;;;;;;;;;5054272;28;20095;-76
2021/08/04 01:49:43;;;;;;;24.55;22.17;;;;;;;;;;5054402;28;20124;-76
2021/08/04 01:52:11;;;;;;;24.50;22.00;;;;;;;;;;5053893;28;20021;-76
2021/08/04 01:54:37;;;;;;;26.50;22.10;;;;;;;;;;5053249;28;20032;-75
2021/08/04 01:57:02;;;;;;;24.65;22.10;;;;;;;;;;5053569;28;20021;-76
2021/08/04 01:59:27;;;;;;;27.05;22.20;;;;;;;;;;5054086;28;20536;-76
2021/08/04 02:01:55;;;;;;;26.58;22.25;;;;;;;;;;5053961;28;20028;-76
2021/08/04 02:04:21;;;;;;;25.52;22.65;;;;;;;;;;5055677;28;20021;-75
2021/08/04 02:07:04;;;;;;;24.50;21.90;;;;;;;;;;5068177;28;20035;-76
2021/08/04 02:09:48;;;;;;;24.13;21.55;;;;;;;;;;5058689;28;20024;-76
2021/08/04 02:12:13;;;;;;;24.77;21.92;;;;;;;;;;5073049;28;20056;-76
2021/08/04 02:14:57;;;;;;;26.45;23.38;;;;;;;;;;5060494;28;20474;-76
2021/08/04 02:17:28;;;;;;;27.40;23.58;;;;;;;;;;5053515;28;20024;-76
2021/08/04 02:19:58;;;;;;;26.13;23.40;;;;;;;;;;5053789;28;20021;-75
2021/08/04 02:22:45;;;;;;;25.55;23.08;;;;;;;;;;5053502;28;20021;-76
2021/08/04 02:25:17;;;;;;;26.15;23.33;;;;;;;;;;5053729;28;20025;-76
2021/08/04 02:27:45;;;;;;;28.17;23.70;;;;;;;;;;5053657;28;20376;-76
2021/08/04 02:30:15;;;;;;;26.77;23.98;;;;;;;;;;5053534;28;20032;-76
2021/08/04 02:32:40;;;;;;;29.73;23.08;;;;;;;;;;5072460;28;20024;-76
2021/08/04 02:35:06;;;;;;;29.13;24.38;;;;;;;;;;5073395;28;20017;-76
2021/08/04 02:37:34;;;;;;;25.45;23.05;;;;;;;;;;5054141;28;20352;-76
2021/08/04 02:40:00;;;;;;;28.42;24.60;;;;;;;;;;5052948;28;20589;-76
2021/08/04 02:42:25;;;;;;;28.88;25.77;;;;;;;;;;5061432;28;20059;-76
2021/08/04 02:44:53;;;;;;;30.25;24.05;;;;;;;;;;5073008;28;20485;-76
2021/08/04 02:47:19;;;;;;;27.40;24.65;;;;;;;;;;5070714;28;20024;-76
2021/08/04 02:49:47;;;;;;;27.00;24.08;;;;;;;;;;5069381;28;20399;-75
2021/08/04 02:52:13;;;;;;;28.13;25.20;;;;;;;;;;5069645;28;20028;-75
2021/08/04 02:54:42;;;;;;;27.85;25.02;;;;;;;;;;5054941;28;20382;-76
2021/08/04 02:57:09;;;;;;;27.63;24.70;;;;;;;;;;5073064;28;20078;-76
2021/08/04 02:59:34;;;;;;;27.77;24.88;;;;;;;;;;5072594;28;20024;-76
2021/08/04 03:02:00;;;;;;;26.70;23.47;;;;;;;;;;5073181;28;20016;-76
2021/08/04 03:04:25;;;;;;;28.52;25.25;;;;;;;;;;5073006;28;20270;-76
2021/08/04 03:06:50;;;;;;;26.98;23.55;;;;;;;;;;5058694;28;20021;-76
2021/08/04 03:09:18;;;;;;;29.43;25.03;;;;;;;;;;5035698;28;20166;-76
2021/08/04 03:11:43;;;;;;;27.75;24.85;;;;;;;;;;5092744;28;20297;-75
2021/08/04 03:14:08;;;;;;;27.33;24.47;;;;;;;;;;5092973;28;20085;-75
2021/08/04 03:16:35;;;;;;;28.63;25.42;;;;;;;;;;5069696;28;20736;-75
2021/08/04 03:19:00;;;;;;;28.00;23.65;;;;;;;;;;5072449;28;20025;-75
2021/08/04 03:21:26;;;;;;;26.58;23.58;;;;;;;;;;5061468;28;20032;-76
2021/08/04 03:23:51;;;;;;;28.27;25.15;;;;;;;;;;5061380;28;20047;-75
2021/08/04 03:26:16;;;;;;;27.65;24.85;;;;;;;;;;5063313;28;20064;-76
2021/08/04 03:28:41;;;;;;;29.00;25.93;;;;;;;;;;5042028;28;20148;-75
2021/08/04 03:31:09;;;;;;;28.48;25.05;;;;;;;;;;5060556;28;20713;-75
2021/08/04 03:33:34;;;;;;;28.58;25.42;;;;;;;;;;5061902;28;20028;-75
2021/08/04 03:35:59;;;;;;;28.08;25.08;;;;;;;;;;5058655;28;20358;-75
2021/08/04 03:38:25;;;;;;;30.52;27.38;;;;;;;;;;5061507;28;20017;-76
2021/08/04 03:40:52;;;;;;;28.27;25.23;;;;;;;;;;5059878;28;20021;-76
2021/08/04 03:43:17;;;;;;;29.42;25.95;;;;;;;;;;5062010;28;20358;-76
2021/08/04 03:45:43;;;;;;;30.03;26.80;;;;;;;;;;5061616;28;20017;-76
2021/08/04 03:48:08;;;;;;;28.45;25.40;;;;;;;;;;5062580;28;20332;-76
2021/08/04 03:50:33;;;;;;;26.83;24.02;;;;;;;;;;5056593;28;20020;-77
2021/08/04 03:53:01;;;;;;;26.40;23.60;;;;;;;;;;5055761;28;20013;-76
2021/08/04 03:55:26;;;;;;;26.73;24.05;;;;;;;;;;5053382;28;20252;-76
2021/08/04 03:57:51;;;;;;;27.77;24.98;;;;;;;;;;5054270;28;20014;-76
2021/08/04 04:00:18;;;;;;;28.35;24.90;;;;;;;;;;5069710;28;20016;-77
2021/08/04 04:02:44;;;;;;;27.92;24.60;;;;;;;;;;5053199;28;20067;-73
2021/08/04 04:17:20;;;;;;;28.75;25.70;;;;;;;;;;4344019;28;20086;-78
2021/08/04 04:19:47;;;;;;;29.88;26.88;;;;;;;;;;5076022;28;20068;-79
2021/08/04 04:22:13;;;;;;;29.50;26.45;;;;;;;;;;5074822;28;20024;-76
2021/08/04 04:24:38;;;;;;;30.02;26.73;;;;;;;;;;5075235;28;20039;-77
2021/08/04 04:27:03;;;;;;;34.42;27.45;;;;;;;;;;5074593;28;20104;-78
2021/08/04 04:29:29;;;;;;;31.95;27.33;;;;;;;;;;5075419;28;20065;-78
2021/08/04 04:31:56;;;;;;;31.73;27.67;;;;;;;;;;5074663;28;20347;-80
2021/08/04 04:34:21;;;;;;;31.05;27.65;;;;;;;;;;5075673;28;20025;-78
2021/08/04 04:36:49;;;;;;;28.60;25.80;;;;;;;;;;5059691;28;20028;-79
2021/08/04 04:39:14;;;;;;;30.40;27.00;;;;;;;;;;5055635;28;20024;-79
2021/08/04 04:41:39;;;;;;;31.33;25.67;;;;;;;;;;5044585;28;20048;-79
2021/08/04 04:44:07;;;;;;;31.23;27.88;;;;;;;;;;5057318;28;20082;-79
2021/08/04 04:46:34;;;;;;;27.88;24.95;;;;;;;;;;5055104;28;20044;-79
2021/08/04 04:49:02;;;;;;;29.40;26.30;;;;;;;;;;5065089;28;20043;-78
2021/08/04 04:51:27;;;;;;;36.60;28.40;;;;;;;;;;5062893;28;20136;-80
2021/08/04 04:53:54;;;;;;;31.38;28.00;;;;;;;;;;5054518;28;20100;-80
2021/08/04 04:56:20;;;;;;;29.98;26.75;;;;;;;;;;5060317;28;20060;-80
2021/08/04 04:58:45;;;;;;;30.52;27.30;;;;;;;;;;5055790;28;20144;-80
2021/08/04 05:01:10;;;;;;;33.20;26.92;;;;;;;;;;5067292;28;20120;-80
2021/08/04 05:03:36;;;;;;;29.00;25.90;;;;;;;;;;5072184;28;20024;-81
2021/08/04 05:06:01;;;;;;;30.95;26.80;;;;;;;;;;5069463;28;20039;-80
2021/08/04 05:08:26;;;;;;;34.88;26.65;;;;;;;;;;5068670;28;20024;-80
2021/08/04 05:10:51;;;;;;;28.60;25.55;;;;;;;;;;5074559;28;20043;-80
2021/08/04 05:13:17;;;;;;;29.55;26.45;;;;;;;;;;5066367;28;20029;-79
2021/08/04 05:15:42;;;;;;;30.83;25.60;;;;;;;;;;5074928;28;20135;-80
2021/08/04 05:18:07;;;;;;;29.58;26.42;;;;;;;;;;5074821;28;20127;-79
2021/08/04 05:20:33;;;;;;;29.30;26.33;;;;;;;;;;5055220;28;20024;-79
2021/08/04 05:22:58;;;;;;;30.55;26.05;;;;;;;;;;5046997;28;20031;-79
2021/08/04 05:25:24;;;;;;;28.47;25.53;;;;;;;;;;5054373;28;20021;-80
2021/08/04 05:27:49;;;;;;;26.40;23.50;;;;;;;;;;5065313;28;20627;-79
2021/08/04 05:30:15;;;;;;;27.77;24.85;;;;;;;;;;5050812;28;20025;-80
2021/08/04 05:32:40;;;;;;;29.40;25.42;;;;;;;;;;5070853;28;20032;-80
2021/08/04 05:35:06;;;;;;;31.05;27.75;;;;;;;;;;5068575;28;20342;-79
2021/08/04 05:37:34;;;;;;;31.60;28.20;;;;;;;;;;5072483;28;20020;-80
2021/08/04 05:40:01;;;;;;;29.27;26.20;;;;;;;;;;5057554;28;20021;-79
2021/08/04 05:42:27;;;;;;;32.72;28.58;;;;;;;;;;5062004;28;20027;-79
2021/08/04 05:44:52;;;;;;;33.30;28.55;;;;;;;;;;5073972;28;20028;-80
2021/08/04 05:47:17;;;;;;;30.38;26.92;;;;;;;;;;5074179;28;20071;-80
2021/08/04 05:49:43;;;;;;;32.50;28.42;;;;;;;;;;5074518;28;20020;-80
2021/08/04 05:52:10;;;;;;;36.13;29.05;;;;;;;;;;5058745;28;20033;-80
2021/08/04 05:54:38;;;;;;;29.95;26.83;;;;;;;;;;5054164;28;20090;-80
2021/08/04 05:57:08;;;;;;;31.67;27.60;;;;;;;;;;5054457;28;20477;-80
2021/08/04 05:59:36;;;;;;;30.85;27.55;;;;;;;;;;5066591;28;20319;-80
2021/08/04 06:02:01;;;;;;;30.77;27.48;;;;;;;;;;5073956;28;20079;-80
2021/08/04 06:04:26;;;;;;;29.02;26.02;;;;;;;;;;5073500;28;20028;-80
2021/08/04 06:06:51;;;;;;;27.13;24.33;;;;;;;;;;5057859;28;20068;-80
2021/08/04 06:09:19;;;;;;;31.45;25.70;;;;;;;;;;5053720;28;20347;-81
2021/08/04 06:11:44;;;;;;;28.30;22.90;;;;;;;;;;5035936;28;20025;-81
2021/08/04 06:14:10;;;;;;;27.60;24.70;;;;;;;;;;5073497;28;20021;-80
2021/08/04 06:16:40;;;;;;;25.73;22.95;;;;;;;;;;5073621;28;20020;-80
2021/08/04 06:19:07;;;;;;;27.90;24.42;;;;;;;;;;5073762;28;20048;-80
2021/08/04 06:21:32;;;;;;;26.92;24.02;;;;;;;;;;5062489;28;20384;-80
2021/08/04 06:23:58;;;;;;;30.17;24.80;;;;;;;;;;5072769;28;20154;-80
2021/08/04 06:26:25;;;;;;;27.13;22.73;;;;;;;;;;5073632;28;20043;-80
2021/08/04 06:28:50;;;;;;;27.50;22.30;;;;;;;;;;5056379;28;20032;-80
2021/08/04 06:31:15;;;;;;;26.27;23.13;;;;;;;;;;5059936;28;20020;-80
2021/08/04 06:33:41;;;;;;;28.20;25.42;;;;;;;;;;5072027;28;20050;-80
2021/08/04 06:36:06;;;;;;;25.27;22.70;;;;;;;;;;5073319;28;20052;-81
2021/08/04 06:38:31;;;;;;;26.10;22.48;;;;;;;;;;5072521;28;20366;-81
2021/08/04 06:40:57;;;;;;;25.70;22.95;;;;;;;;;;5059570;28;20454;-80
2021/08/04 06:43:22;;;;;;;26.25;23.67;;;;;;;;;;5062899;28;20025;-80
2021/08/04 06:45:48;;;;;;;42.22;36.83;;;;;;;;;;5053202;28;20059;-80
2021/08/04 06:48:16;;;;;;;26.77;23.45;;;;;;;;;;5064079;28;20024;-80
2021/08/04 06:50:41;;;;;;;26.15;23.35;;;;;;;;;;5059625;28;20016;-80
2021/08/04 06:53:08;;;;;;;24.67;22.27;;;;;;;;;;5052810;28;20055;-78
2021/08/04 06:55:34;;;;;;;25.17;22.63;;;;;;;;;;5052916;28;20017;-76
2021/08/04 06:57:59;;;;;;;26.33;23.53;;;;;;;;;;5052881;28;20466;-74
2021/08/04 07:00:24;;;;;;;25.95;23.45;;;;;;;;;;5058989;28;20297;-79
2021/08/04 07:02:49;;;;;;;25.23;21.92;;;;;;;;;;5059400;28;20021;-79
2021/08/04 07:05:17;;;;;;;26.08;23.42;;;;;;;;;;5057536;28;20479;-76
2021/08/04 07:07:48;;;;;;;23.60;21.15;;;;;;;;;;5055516;28;20324;-79
2021/08/04 07:10:14;;;;;;;25.92;22.38;;;;;;;;;;5073095;28;20108;-79
2021/08/04 07:12:42;;;;;;;24.83;22.23;;;;;;;;;;5061704;28;20394;-79
2021/08/04 07:15:07;;;;;;;25.63;23.00;;;;;;;;;;5056285;28;20020;-79
2021/08/04 07:17:48;;;;;;;27.92;22.08;;;;;;;;;;5057435;28;20404;-80
2021/08/04 07:20:14;;;;;;;26.02;22.75;;;;;;;;;;5057194;28;20016;-79
2021/08/04 07:22:42;;;;;;;24.25;21.77;;;;;;;;;;5060090;28;20027;-79
2021/08/04 07:25:07;;;;;;;28.42;23.73;;;;;;;;;;5044900;28;20024;-81
2021/08/04 07:27:33;;;;;;;26.38;22.50;;;;;;;;;;5066528;28;20024;-80
2021/08/04 07:30:02;;;;;;;23.85;21.10;;;;;;;;;;5072220;28;20017;-81
2021/08/04 07:32:30;;;;;;;25.35;22.85;;;;;;;;;;5068436;28;20044;-83
2021/08/04 07:34:56;;;;;;;26.88;23.45;;;;;;;;;;5060518;28;20028;-81
2021/08/04 07:37:21;;;;;;;26.05;23.25;;;;;;;;;;5062173;28;20009;-81
2021/08/04 07:39:46;;;;;;;26.70;23.90;;;;;;;;;;5065721;28;20017;-83
2021/08/04 07:42:11;;;;;;;30.10;23.30;;;;;;;;;;5044158;28;20043;-83
2021/08/04 07:44:36;;;;;;;25.35;22.42;;;;;;;;;;5055510;28;20263;-79
2021/08/04 07:47:02;;;;;;;24.37;21.73;;;;;;;;;;5059698;28;20020;-79
2021/08/04 07:49:29;;;;;;;27.52;22.17;;;;;;;;;;5056986;28;20263;-79
2021/08/04 07:52:04;;;;;;;30.23;22.88;;;;;;;;;;5055715;28;20025;-79
2021/08/04 07:54:34;;;;;;;27.67;23.35;;;;;;;;;;5063401;28;20033;-78
2021/08/04 07:57:09;;;;;;;26.77;23.30;;;;;;;;;;5060836;28;20017;-80
2021/08/04 07:59:34;;;;;;;26.02;22.95;;;;;;;;;;5065083;28;20077;-79
2021/08/04 08:02:03;;;;;;;26.52;22.58;;;;;;;;;;5061151;28;20024;-79
2021/08/04 08:04:32;;;;;;;25.63;22.60;;;;;;;;;;5060357;28;20025;-80
2021/08/04 08:07:05;;;;;;;27.88;22.60;;;;;;;;;;5065005;28;20636;-82
2021/08/04 08:09:30;;;;;;;29.63;23.10;;;;;;;;;;5060688;28;20025;-76
2021/08/04 08:11:59;;;;;;;29.55;26.08;;;;;;;;;;5058556;28;20013;-77
2021/08/04 08:14:25;;;;;;;34.83;25.40;;;;;;;;;;5060723;28;20021;-78
2021/08/04 08:16:50;;;;;;;32.17;24.52;;;;;;;;;;5058593;28;20561;-76
2021/08/04 08:19:18;;;;;;;26.10;23.48;;;;;;;;;;5056881;28;20025;-78
2021/08/04 08:21:43;;;;;;;27.98;22.63;;;;;;;;;;5058421;28;20362;-76
2021/08/04 08:24:09;;;;;;;24.35;21.52;;;;;;;;;;5058577;28;20029;-75
2021/08/04 08:26:35;;;;;;;28.33;23.88;;;;;;;;;;5065035;28;20112;-78
2021/08/04 08:29:02;;;;;;;28.45;24.45;;;;;;;;;;5059160;28;20028;-80
2021/08/04 08:31:28;;;;;;;25.25;22.55;;;;;;;;;;5064671;28;20021;-82
2021/08/04 08:33:59;;;;;;;24.98;20.80;;;;;;;;;;5068625;28;20336;-79
2021/08/04 08:36:29;;;;;;;29.15;24.88;;;;;;;;;;5065175;28;20415;-79
2021/08/04 08:38:55;;;;;;;26.33;23.63;;;;;;;;;;5043061;28;20036;-80
2021/08/04 08:41:25;;;;;;;27.17;22.75;;;;;;;;;;5063244;28;20036;-79
2021/08/04 08:43:55;;;;;;;25.92;23.02;;;;;;;;;;5057260;28;20397;-79
2021/08/04 08:46:27;;;;;;;22.75;20.38;;;;;;;;;;5062608;28;20039;-78
2021/08/04 08:48:52;;;;;;;26.17;22.67;;;;;;;;;;5066238;28;20021;-78
2021/08/04 08:51:23;;;;;;;27.07;21.17;;;;;;;;;;5066814;28;20062;-78
2021/08/04 08:53:51;;;;;;;24.50;21.73;;;;;;;;;;5065988;28;20286;-78
2021/08/04 08:56:18;;;;;;;25.90;22.95;;;;;;;;;;5066364;28;20017;-78
2021/08/04 08:58:52;;;;;;;27.15;21.63;;;;;;;;;;5064515;28;20322;-78
2021/08/04 09:01:17;;;;;;;24.60;20.92;;;;;;;;;;5065235;28;20450;-78
2021/08/04 09:03:42;;;;;;;24.27;21.42;;;;;;;;;;5059050;28;20032;-78
2021/08/04 09:06:10;;;;;;;28.40;22.85;;;;;;;;;;5041660;28;20347;-78
2021/08/04 09:08:36;;;;;;;23.00;18.50;;;;;;;;;;5058055;28;20359;-78
2021/08/04 09:11:17;;;;;;;23.13;19.67;;;;;;;;;;5056746;28;20054;-78
2021/08/04 09:13:46;;;;;;;21.40;18.48;;;;;;;;;;5058052;28;20029;-79
2021/08/04 09:16:19;;;;;;;21.13;18.92;;;;;;;;;;5060146;28;20040;-78
2021/08/04 09:18:47;;;;;;;20.15;18.05;;;;;;;;;;5058434;28;20070;-78
2021/08/04 09:21:16;;;;;;;19.73;17.35;;;;;;;;;;5061662;28;20078;-79
2021/08/04 09:23:46;;;;;;;23.00;18.13;;;;;;;;;;5059752;28;20021;-79
2021/08/04 09:26:18;;;;;;;20.77;18.45;;;;;;;;;;5054748;28;20067;-78
2021/08/04 09:28:55;;;;;;;19.85;16.02;;;;;;;;;;5069247;28;20323;-79
2021/08/04 09:31:22;;;;;;;19.63;17.10;;;;;;;;;;5066807;28;20040;-77
2021/08/04 09:33:48;;;;;;;20.85;16.45;;;;;;;;;;5063127;28;20021;-78
2021/08/04 09:36:25;;;;;;;19.75;16.42;;;;;;;;;;5071881;28;20021;-77
2021/08/04 09:39:06;;;;;;;25.40;19.05;;;;;;;;;;5064691;28;20021;-78
2021/08/04 09:41:31;;;;;;;17.45;15.60;;;;;;;;;;5054194;28;20021;-78
2021/08/04 09:44:06;;;;;;;21.15;16.10;;;;;;;;;;5053918;28;20332;-78
2021/08/04 09:46:31;;;;;;;27.85;18.75;;;;;;;;;;5054434;28;20099;-78
2021/08/04 09:49:12;;;;;;;24.17;17.02;;;;;;;;;;5054399;28;20108;-78
2021/08/04 09:51:37;;;;;;;21.15;16.67;;;;;;;;;;5054879;28;20017;-79
2021/08/04 09:54:09;;;;;;;17.38;15.32;;;;;;;;;;5086528;28;20103;-78
2021/08/04 09:56:48;;;;;;;18.23;15.48;;;;;;;;;;5095041;28;20255;-78
2021/08/04 09:59:13;;;;;;;19.88;16.15;;;;;;;;;;5081729;28;20031;-78
2021/08/04 10:01:42;;;;;;;18.13;16.27;;;;;;;;;;5066540;28;20543;-79
2021/08/04 10:04:08;;;;;;;19.05;15.57;;;;;;;;;;5053793;28;20256;-78
2021/08/04 10:06:34;;;;;;;17.08;15.00;;;;;;;;;;5054330;28;20056;-79
2021/08/04 10:09:00;;;;;;;16.85;15.00;;;;;;;;;;5054228;28;20036;-79
2021/08/04 10:11:29;;;;;;;16.88;13.30;;;;;;;;;;5053077;28;20447;-78
2021/08/04 10:13:57;;;;;;;13.02;11.70;;;;;;;;;;5053820;28;20482;-78
2021/08/04 10:16:33;;;;;;;16.83;13.00;;;;;;;;;;5035104;28;20035;-80
2021/08/04 10:18:59;;;;;;;;;;;;;;;;;;5064767;28;20128;-78
2021/08/04 10:21:24;;;;;;;13.30;11.90;;;;;;;;;;5055108;28;20434;-78
2021/08/04 10:23:54;;;;;;;14.63;11.88;;;;;;;;;;5073906;28;20035;-78
2021/08/04 10:26:22;;;;;;;14.05;11.95;;;;;;;;;;5073914;28;20025;-78
2021/08/04 10:28:53;;;;;;;13.43;12.05;;;;;;;;;;5074071;28;20391;-79
2021/08/04 10:31:20;;;;;;;12.05;9.63;;;;;;;;;;5091472;28;20441;-79
2021/08/04 10:33:48;;;;;;;12.55;9.23;;;;;;;;;;5075600;28;20582;-78
2021/08/04 10:36:14;;;;;;;12.00;10.57;;;;;;;;;;5066314;28;20024;-78
2021/08/04 10:38:43;;;;;;;11.35;9.45;;;;;;;;;;5073078;28;20021;-78
2021/08/04 10:41:19;;;;;;;12.18;10.18;;;;;;;;;;5073273;28;20447;-78
2021/08/04 10:43:44;;;;;;;;;;;;;;;;;;5042453;28;20033;-78
2021/08/04 10:46:33;;;;;;;12.63;8.82;;;;;;;;;;5054621;28;20007;-78
2021/08/04 10:48:58;;;;;;;12.60;11.30;;;;;;;;;;5052071;28;20132;-78
2021/08/04 10:51:24;;;;;;;13.37;9.10;;;;;;;;;;5061830;28;20380;-79
2021/08/04 10:54:01;;;;;;;10.35;9.00;;;;;;;;;;5055569;28;20024;-77
2021/08/04 10:56:35;;;;;;;11.77;10.52;;;;;;;;;;5063105;28;20005;-79
2021/08/04 11:02:03;;;;;;;13.10;9.30;;;;;;;;;;5060805;28;20374;-76
2021/08/04 11:07:31;;;;;;;7.43;6.03;;;;;;;;;;5071575;28;20024;-78
2021/08/04 11:10:00;;;;;;;7.40;5.63;;;;;;;;;;5073347;28;20415;-79
2021/08/04 11:12:34;;;;;;;6.15;4.20;;;;;;;;;;5055647;28;20616;-77
2021/08/04 11:15:02;;;;;;;5.32;3.60;;;;;;;;;;5073193;28;20024;-77
2021/08/04 11:17:31;;;;;;;6.32;3.47;;;;;;;;;;5072974;28;20486;-80
2021/08/04 11:19:57;;;;;;;4.32;3.10;;;;;;;;;;5073191;28;20017;-80
2021/08/04 11:22:26;;;;;;;3.60;3.03;;;;;;;;;;5063736;28;20432;-77
2021/08/04 11:24:52;;;;;;;3.38;2.78;;;;;;;;;;5052203;28;20082;-78
2021/08/04 11:27:18;;;;;;;5.57;2.80;;;;;;;;;;5055667;28;20079;-78
2021/08/04 11:29:44;;;;;;;3.93;2.97;;;;;;;;;;5067230;28;20439;-78
2021/08/04 11:32:21;;;;;;;4.35;2.83;;;;;;;;;;5075016;28;20269;-79
2021/08/04 11:34:49;;;;;;;4.63;2.70;;;;;;;;;;5056753;28;20442;-77
2021/08/04 11:37:17;;;;;;;3.42;2.85;;;;;;;;;;5056815;28;20032;-78
2021/08/04 11:40:01;;;;;;;4.97;2.92;;;;;;;;;;5074414;28;20020;-79
2021/08/04 11:42:29;;;;;;;4.30;2.60;;;;;;;;;;5076540;28;20040;-79
2021/08/04 11:45:15;;;;;;;3.55;2.78;;;;;;;;;;5061455;28;20037;-78
2021/08/04 11:47:40;;;;;;;4.53;2.92;;;;;;;;;;5056318;28;20061;-78
2021/08/04 11:50:07;;;;;;;8.67;3.07;;;;;;;;;;5046572;28;20387;-78
2021/08/04 11:52:33;;;;;;;2.88;2.60;;;;;;;;;;5076230;28;20017;-78
2021/08/04 11:54:59;;;;;;;4.18;2.40;;;;;;;;;;5070192;28;20021;-78
2021/08/04 11:57:27;;;;;;;2.83;1.92;;;;;;;;;;5041429;28;20565;-78
2021/08/04 11:59:53;;;;;;;2.40;1.70;;;;;;;;;;5073822;28;20017;-80
2021/08/04 12:02:22;;;;;;;2.55;2.00;;;;;;;;;;5076526;28;20017;-81
2021/08/04 12:04:52;;;;;;;2.40;2.00;;;;;;;;;;5075179;28;20028;-79
2021/08/04 12:07:22;;;;;;;2.60;1.70;;;;;;;;;;5072670;28;20107;-78
2021/08/04 12:09:48;;;;;;;2.53;1.80;;;;;;;;;;5075346;28;20355;-80
2021/08/04 12:12:17;;;;;;;1.50;1.35;;;;;;;;;;5057218;28;20020;-79
2021/08/04 12:14:43;;;;;;;2.00;1.35;;;;;;;;;;5055651;28;20029;-82
2021/08/04 12:17:08;;;;;;;1.92;1.40;;;;;;;;;;5055495;28;20114;-81
2021/08/04 12:19:39;;;;;;;2.27;1.60;;;;;;;;;;5041715;28;20025;-82
2021/08/04 12:22:08;;;;;;;2.35;1.33;;;;;;;;;;5072079;28;20434;-82
2021/08/04 12:24:40;;;;;;;1.73;1.45;;;;;;;;;;5095936;28;20404;-82
2021/08/04 12:27:08;;;;;;;1.70;1.40;;;;;;;;;;5096413;28;20020;-83
2021/08/04 12:29:35;;;;;;;4.22;1.50;;;;;;;;;;5069558;28;20081;-86
2021/08/04 12:32:03;;;;;;;1.40;1.30;;;;;;;;;;5056866;28;20021;-85
2021/08/04 12:34:28;;;;;;;2.03;1.35;;;;;;;;;;5064405;28;20034;-84
2021/08/04 12:36:57;;;;;;;4.60;1.60;;;;;;;;;;5055985;28;20450;-81
2021/08/04 12:39:30;;;;;;;1.95;1.50;;;;;;;;;;5061035;28;20423;-82
2021/08/04 12:41:55;;;;;;;5.57;1.42;;;;;;;;;;5041961;28;20043;-84
2021/08/04 12:44:20;;;;;;;2.10;1.70;;;;;;;;;;5048420;28;20021;-84
2021/08/04 12:46:45;;;;;;;2.17;1.47;;;;;;;;;;5070652;28;20020;-82
2021/08/04 12:49:16;;;;;;;3.25;1.95;;;;;;;;;;5063629;28;20013;-82
2021/08/04 12:51:52;;;;;;;3.25;1.88;;;;;;;;;;5064470;28;20032;-83
2021/08/04 12:54:25;;;;;;;4.40;1.80;;;;;;;;;;5050419;28;20028;-84
2021/08/04 12:56:51;;;;;;;1.63;1.30;;;;;;;;;;5045271;28;20020;-84
2021/08/04 12:59:19;;;;;;;2.13;1.80;;;;;;;;;;5044978;28;20024;-85
2021/08/04 13:01:45;;;;;;;3.65;1.50;;;;;;;;;;5057684;28;20071;-82
2021/08/04 13:04:16;;;;;;;4.95;1.63;;;;;;;;;;5059512;28;20044;-82
2021/08/04 13:06:48;;;;;;;2.45;1.58;;;;;;;;;;5043316;28;20104;-82
2021/08/04 13:09:14;;;;;;;4.55;1.60;;;;;;;;;;5060574;28;20493;-82
2021/08/04 13:11:42;;;;;;;2.05;1.70;;;;;;;;;;5071973;28;20107;-81
2021/08/04 13:14:07;;;;;;;4.07;2.20;;;;;;;;;;5075002;28;20024;-82
2021/08/04 13:16:33;;;;;;;4.13;2.10;;;;;;;;;;5058512;28;20033;-82
2021/08/04 13:18:58;;;;;;;2.42;1.73;;;;;;;;;;5037115;28;20103;-82
2021/08/04 13:21:24;;;;;;;2.33;1.80;;;;;;;;;;5063964;28;20456;-82
2021/08/04 13:23:49;;;;;;;2.97;1.90;;;;;;;;;;5065743;28;20442;-85
2021/08/04 13:26:18;;;;;;;2.70;1.60;;;;;;;;;;5071800;28;20029;-81
2021/08/04 13:28:44;;;;;;;3.28;1.55;;;;;;;;;;5060333;28;20259;-81
2021/08/04 13:31:17;;;;;;;3.90;1.92;;;;;;;;;;5065868;28;20048;-81
2021/08/04 13:33:47;;;;;;;2.38;1.83;;;;;;;;;;5069608;28;20020;-81
2021/08/04 13:36:15;;;;;;;2.75;2.30;;;;;;;;;;5061137;28;20103;-80
2021/08/04 13:38:42;;;;;;;2.28;2.08;;;;;;;;;;5054362;28;20024;-80
2021/08/04 13:41:08;;;;;;;4.53;2.00;;;;;;;;;;5056931;28;20028;-80
2021/08/04 13:43:36;;;;;;;3.08;2.05;;;;;;;;;;5065106;28;20028;-83
2021/08/04 13:46:06;;;;;;;2.90;2.22;;;;;;;;;;5094258;28;20076;-83
2021/08/04 13:48:32;;;;;;;2.97;2.15;;;;;;;;;;5092088;28;20016;-83
2021/08/04 13:50:59;;;;;;;2.08;1.88;;;;;;;;;;5058186;28;20104;-82
2021/08/04 13:53:27;;;;;;;4.05;2.05;;;;;;;;;;5054098;28;20103;-83
2021/08/04 13:55:52;;;;;;;3.88;2.50;;;;;;;;;;5082501;28;20022;-83
2021/08/04 13:58:20;;;;;;;2.63;2.13;;;;;;;;;;5094487;28;20059;-83
2021/08/04 14:00:47;;;;;;;3.47;2.42;;;;;;;;;;5088342;28;20039;-82
2021/08/04 14:03:15;;;;;;;3.05;2.47;;;;;;;;;;5073675;28;20008;-82
2021/08/04 14:05:41;;;;;;;3.30;2.33;;;;;;;;;;5068961;28;20024;-81
2021/08/04 14:08:10;;;;;;;4.30;3.97;;;;;;;;;;5056889;28;20033;-81
2021/08/04 14:10:36;;;;;;;4.57;2.75;;;;;;;;;;5054000;28;20013;-82
2021/08/04 14:13:02;;;;;;;3.25;2.95;;;;;;;;;;5056468;28;20078;-81
2021/08/04 14:15:30;;;;;;;4.50;2.60;;;;;;;;;;5056669;28;20016;-81
2021/08/04 14:17:55;;;;;;;3.35;2.20;;;;;;;;;;5065513;28;20071;-81
2021/08/04 14:20:21;;;;;;;3.90;2.50;;;;;;;;;;5073107;28;20451;-81
2021/08/04 14:22:49;;;;;;;3.80;2.22;;;;;;;;;;5063279;28;20756;-81
2021/08/04 14:25:15;;;;;;;2.55;2.35;;;;;;;;;;5043889;28;20124;-81
2021/08/04 14:27:41;;;;;;;6.97;2.28;;;;;;;;;;5065894;28;20016;-81
2021/08/04 14:30:07;;;;;;;3.05;2.28;;;;;;;;;;5072431;28;20028;-81
2021/08/04 14:32:33;;;;;;;2.53;2.15;;;;;;;;;;5069816;28;20535;-81
2021/08/04 14:35:01;;;;;;;2.80;2.20;;;;;;;;;;5065304;28;20021;-81
2021/08/04 14:37:26;;;;;;;3.25;2.33;;;;;;;;;;5065192;28;20398;-83
2021/08/04 14:39:54;;;;;;;3.60;2.20;;;;;;;;;;5059498;28;20029;-83
2021/08/04 14:42:21;;;;;;;5.53;2.05;;;;;;;;;;5055362;28;20051;-83
2021/08/04 14:44:47;;;;;;;2.35;2.15;;;;;;;;;;5072923;28;20024;-83